METAR AND TAF INFORMATION
METAR FOR TQPF
ADDS - METARS form results

(1012 UTC 23 February 2020)
Data provider http://aviationweather.gov/metar/data/
 
Forecast for: TQPF (WALL BLAKE , VI)
Text: TAF TQPF 222329Z 2300/2324 15005KT 9999 SCT022
Forecast period: 0000 UTC 23 February 2020 to 0000 UTC 24 February 2020
Forecast type: FROM: standard forecast or significant change
Winds: from the SSE (150 degrees) at 6 MPH (5 knots; 2.6 m/s)
Visibility: 6 or more miles 10+ km)
Ceiling: at least 12,000 feet AGL
Clouds: scattered clouds at 2200 feet AGL
Weather: no significant weather forecast for this period

 AIRPORT MAP

 RUNWAY INFORMATION
Runway 10 Runway length 5462 ft Runway width 98 ft
Runway elevation 122 ft Runway displaced threshold 492 ft Runway heading 91
Runway 28 Runway length 5462 ft Runway width 98 ft
Runway elevation 81 ft Runway displaced threshold 492 ft Runway heading 271

 AIRPORT FREQUENCIES
Type APP Name JULIANA AP Frequency 128.95 MHZ
Type TWR Name TWR Frequency 118.5 MHZ

 AIRPORT NEAR NAVIGATION AIDS
Type NDB Name Wallblake Frequency 209 KHZ



Powered by Heron Airways VA. All Rights Reserved © 2009 [v2.6.2]